首页
METAR-TAF:

METAR-TAF

机场 :

通孔廷国际机场

德古斯加巴, 洪都拉斯

纬度: 14-03N, 经度: 087-13W, 海拔: 994米

当前天气观测

该预报发布于29分钟前的13:00 UTC
静风
温度 21°C
湿度 88%
气压 1016 hPa
能見度: 8000
少量云层高于800英尺
多云层高于2600英尺

METAR: MHTG 221300Z 00000KT 8000 FEW008 BKN026 21/19 Q1016 A3000 NOSIG

时间: 07:29 (13:29 UTC)

预报

该预报发布于9小时和4分钟前的04:25 UTC
预报有效从22日的 06点(UTC)到 23日的 06点(UTC)
风速节,风向
能见度10公里或以上
散云层高于2800英尺
散云层高于8000英尺
成为
从 22日的 09点(UTC)到 22日的 11点(UTC)
能見度: 8000
少量云层高于800英尺
多云层高于2600英尺
附近有阵雨
成为
从 22日的 14点(UTC)到 22日的 16点(UTC)
风速8节,风向
能见度10公里或以上
散云层高于3000英尺, 塔状积云.
短暂存在
从 22日的 21点(UTC)到 23日的 02点(UTC)
能見度: 6000
散云层高于2800英尺, 积雨云.
多云层高于8000英尺
雷暴, 雨
成为
从 23日的 02点(UTC)到 23日的 04点(UTC)
风速节,风向
能見度: 8000
散云层高于2600英尺
散云层高于8000英尺
附近有阵雨

TAF: MHTG 220425Z 2206/2306 00000KT 9999 SCT028 SCT080 TX30/2221Z TN19/2212Z BECMG 2209/2211 8000 VCSH FEW008 BKN026 BECMG 2214/2216 09008KT 9999 NSW SCT030TCU TEMPO 2221/2302 6000 TSRA SCT028CB BKN080 BECMG 2302/2304 00000KT 8000 VCSH SCT026 SCT080

超过4000个机场的气象观测和天气预报(METAR&TAF报告)。

可查询的气象台以黄色和红色小点在地图上表示。

将鼠标移到小点上方,可查看气象台名称。

然后点击查看天气观测和预报。

如需切换地图:点击带黑十字的绿色按钮放大地图;点击带横线的绿色按钮缩小地图;或者点击绿色箭头查看邻近地区的地图。


METAR-TAF: